CheckWX is a tool to help pilots better visualize weather data.  It is not intended as a substitute for an official pre-flight weather briefing.

15:02:19 UTC

KBLI TAF
Bellingham International Airport
Bellingham, Washington, USA
KBLI 291153Z 2912/3012 17006KT 5SM -RA SCT003 OVC015 TEMPO 2917/2919 1 1/2SM -RA OVC008 FM292100 17009KT P6SM -SHRA OVC020 FM300500 16012G19KT P6SM -RA OVC025

Mar-29@
12:00 UTC

Mar-29 @ 12:00 UTC

Mar-29@
21:00 UTC

Mar-29 @ 21:00 UTC

TAF KBLI 291153Z 2912/3012 17006KT 5SM -RA SCT003 OVC015
Wind
  • 170° at 6 KTS
Conditions
Light Rain
Cloud Levels
  • Scattered at 300' AGL
  • Overcast at 1,500' AGL

Mar-29@
17:00 UTC

Mar-29 @ 17:00 UTC

Mar-29@
19:00 UTC

Mar-29 @ 19:00 UTC

TEMPO 2917/2919 1 1/2SM -RA OVC008

Temporary

Temporary Changes expected for less than half the time period

Conditions
Light Rain
Cloud Levels
  • Overcast at 800' AGL

Mar-29@
21:00 UTC

Mar-29 @ 21:00 UTC

Mar-30@
05:00 UTC

Mar-30 @ 05:00 UTC

FM292100 17009KT P6SM -SHRA OVC020

From

From Standard forecast or significant change

Wind
  • 170° at 9 KTS
Conditions
Light Showers, Rain
Cloud Levels
  • Overcast at 2,000' AGL

Mar-30@
05:00 UTC

Mar-30 @ 05:00 UTC

Mar-30@
12:00 UTC

Mar-30 @ 12:00 UTC

FM300500 16012G19KT P6SM -RA OVC025

From

From Standard forecast or significant change

Wind
  • 160° at 12 KTS
  • {Gusting to 19 KTS
Conditions
Light Rain
Cloud Levels
  • Overcast at 2,500' AGL